sensor_id;sensor_type;location;lat;lon;timestamp;temperature;humidity
39825;DHT22;25503;52.532;13.640;2022-12-29T00:02:18;8.10;99.90
39825;DHT22;25503;52.532;13.640;2022-12-29T00:04:43;8.10;99.90
39825;DHT22;25503;52.532;13.640;2022-12-29T00:07:09;8.00;99.90
39825;DHT22;25503;52.532;13.640;2022-12-29T00:09:35;8.00;99.90
39825;DHT22;25503;52.532;13.640;2022-12-29T00:12:02;8.00;99.90
39825;DHT22;25503;52.532;13.640;2022-12-29T00:14:28;8.00;99.90
39825;DHT22;25503;52.532;13.640;2022-12-29T00:17:12;8.00;99.90
39825;DHT22;25503;52.532;13.640;2022-12-29T00:19:38;8.00;99.90
39825;DHT22;25503;52.532;13.640;2022-12-29T00:22:23;8.00;99.90
39825;DHT22;25503;52.532;13.640;2022-12-29T00:25:09;8.00;99.90
39825;DHT22;25503;52.532;13.640;2022-12-29T00:27:54;8.10;99.90
39825;DHT22;25503;52.532;13.640;2022-12-29T00:30:38;8.10;99.90
39825;DHT22;25503;52.532;13.640;2022-12-29T00:33:27;8.10;99.90
39825;DHT22;25503;52.532;13.640;2022-12-29T00:36:31;8.10;99.90
39825;DHT22;25503;52.532;13.640;2022-12-29T00:39:00;8.10;99.90
39825;DHT22;25503;52.532;13.640;2022-12-29T00:41:46;8.10;99.90
39825;DHT22;25503;52.532;13.640;2022-12-29T00:44:30;8.20;99.90
39825;DHT22;25503;52.532;13.640;2022-12-29T00:46:56;8.20;99.90
39825;DHT22;25503;52.532;13.640;2022-12-29T00:49:21;8.20;99.90
39825;DHT22;25503;52.532;13.640;2022-12-29T00:52:05;8.30;99.90
39825;DHT22;25503;52.532;13.640;2022-12-29T00:54:33;8.30;99.90
39825;DHT22;25503;52.532;13.640;2022-12-29T00:56:59;8.30;99.90
39825;DHT22;25503;52.532;13.640;2022-12-29T00:59:25;8.30;99.90
39825;DHT22;25503;52.532;13.640;2022-12-29T01:01:52;8.30;99.90
39825;DHT22;25503;52.532;13.640;2022-12-29T01:04:19;8.40;99.90
39825;DHT22;25503;52.532;13.640;2022-12-29T01:06:45;8.40;99.90
39825;DHT22;25503;52.532;13.640;2022-12-29T01:09:11;8.40;99.90
39825;DHT22;25503;52.532;13.640;2022-12-29T01:11:56;8.40;99.90
39825;DHT22;25503;52.532;13.640;2022-12-29T01:14:22;8.40;99.90
39825;DHT22;25503;52.532;13.640;2022-12-29T01:16:48;8.40;99.90
39825;DHT22;25503;52.532;13.640;2022-12-29T01:19:14;8.40;99.90
39825;DHT22;25503;52.532;13.640;2022-12-29T01:21:40;8.40;99.90
39825;DHT22;25503;52.532;13.640;2022-12-29T01:24:06;8.40;99.90
39825;DHT22;25503;52.532;13.640;2022-12-29T01:26:32;8.40;99.90
39825;DHT22;25503;52.532;13.640;2022-12-29T01:28:57;8.40;99.90
39825;DHT22;25503;52.532;13.640;2022-12-29T01:31:23;8.40;99.90
39825;DHT22;25503;52.532;13.640;2022-12-29T01:33:48;8.40;99.90
39825;DHT22;25503;52.532;13.640;2022-12-29T01:36:16;8.50;99.90
39825;DHT22;25503;52.532;13.640;2022-12-29T01:38:42;8.50;99.90
39825;DHT22;25503;52.532;13.640;2022-12-29T01:41:10;8.50;99.90
39825;DHT22;25503;52.532;13.640;2022-12-29T01:43:46;8.50;99.90
39825;DHT22;25503;52.532;13.640;2022-12-29T01:46:20;8.50;99.90
39825;DHT22;25503;52.532;13.640;2022-12-29T01:48:51;8.50;99.90
39825;DHT22;25503;52.532;13.640;2022-12-29T01:51:18;8.60;99.90
39825;DHT22;25503;52.532;13.640;2022-12-29T01:53:45;8.60;99.90
39825;DHT22;25503;52.532;13.640;2022-12-29T01:56:12;8.60;99.90
39825;DHT22;25503;52.532;13.640;2022-12-29T01:58:42;8.60;99.90
39825;DHT22;25503;52.532;13.640;2022-12-29T02:01:10;8.60;99.90
39825;DHT22;25503;52.532;13.640;2022-12-29T02:03:36;8.60;99.90
39825;DHT22;25503;52.532;13.640;2022-12-29T02:06:12;8.60;99.90
39825;DHT22;25503;52.532;13.640;2022-12-29T02:08:41;8.60;99.90
39825;DHT22;25503;52.532;13.640;2022-12-29T02:11:07;8.60;99.90
39825;DHT22;25503;52.532;13.640;2022-12-29T02:13:32;8.60;99.90
39825;DHT22;25503;52.532;13.640;2022-12-29T02:16:26;8.70;99.90
39825;DHT22;25503;52.532;13.640;2022-12-29T02:33:10;8.50;99.90
39825;DHT22;25503;52.532;13.640;2022-12-29T02:35:56;8.50;99.90
39825;DHT22;25503;52.532;13.640;2022-12-29T02:41:48;8.50;99.90
39825;DHT22;25503;52.532;13.640;2022-12-29T02:44:50;8.50;99.90
39825;DHT22;25503;52.532;13.640;2022-12-29T02:47:16;8.50;99.90
39825;DHT22;25503;52.532;13.640;2022-12-29T02:49:52;8.60;99.90
39825;DHT22;25503;52.532;13.640;2022-12-29T02:52:25;8.60;99.90
39825;DHT22;25503;52.532;13.640;2022-12-29T02:54:53;8.60;99.90
39825;DHT22;25503;52.532;13.640;2022-12-29T02:59:54;8.70;99.90
39825;DHT22;25503;52.532;13.640;2022-12-29T03:16:28;8.90;99.90
39825;DHT22;25503;52.532;13.640;2022-12-29T03:19:36;8.90;99.90
39825;DHT22;25503;52.532;13.640;2022-12-29T03:22:08;9.00;99.90
39825;DHT22;25503;52.532;13.640;2022-12-29T03:27:40;9.10;99.90
39825;DHT22;25503;52.532;13.640;2022-12-29T03:30:07;9.10;99.90
39825;DHT22;25503;52.532;13.640;2022-12-29T03:32:50;9.10;99.90
39825;DHT22;25503;52.532;13.640;2022-12-29T03:35:20;9.10;99.90
39825;DHT22;25503;52.532;13.640;2022-12-29T03:38:05;9.10;99.90
39825;DHT22;25503;52.532;13.640;2022-12-29T03:40:33;9.10;99.90
39825;DHT22;25503;52.532;13.640;2022-12-29T03:43:00;9.10;99.90
39825;DHT22;25503;52.532;13.640;2022-12-29T03:45:26;9.20;99.90
39825;DHT22;25503;52.532;13.640;2022-12-29T03:47:53;9.20;99.90
39825;DHT22;25503;52.532;13.640;2022-12-29T03:50:20;9.20;99.90
39825;DHT22;25503;52.532;13.640;2022-12-29T03:52:45;9.20;99.90
39825;DHT22;25503;52.532;13.640;2022-12-29T03:55:11;9.20;99.90
39825;DHT22;25503;52.532;13.640;2022-12-29T03:57:36;9.20;99.90
39825;DHT22;25503;52.532;13.640;2022-12-29T04:00:04;9.20;99.90
39825;DHT22;25503;52.532;13.640;2022-12-29T04:02:30;9.20;99.90
39825;DHT22;25503;52.532;13.640;2022-12-29T04:04:56;9.30;99.90
39825;DHT22;25503;52.532;13.640;2022-12-29T04:07:21;9.20;99.90
39825;DHT22;25503;52.532;13.640;2022-12-29T04:09:47;9.20;99.90
39825;DHT22;25503;52.532;13.640;2022-12-29T04:12:12;9.30;99.90
39825;DHT22;25503;52.532;13.640;2022-12-29T04:14:39;9.30;99.90
39825;DHT22;25503;52.532;13.640;2022-12-29T04:17:05;9.40;99.90
39825;DHT22;25503;52.532;13.640;2022-12-29T04:19:31;9.40;99.90
39825;DHT22;25503;52.532;13.640;2022-12-29T04:21:57;9.50;99.90
39825;DHT22;25503;52.532;13.640;2022-12-29T04:24:22;9.50;99.90
39825;DHT22;25503;52.532;13.640;2022-12-29T04:26:48;9.50;99.90
39825;DHT22;25503;52.532;13.640;2022-12-29T04:29:13;9.40;99.90
39825;DHT22;25503;52.532;13.640;2022-12-29T04:31:39;9.50;99.90
39825;DHT22;25503;52.532;13.640;2022-12-29T04:34:04;9.50;99.90
39825;DHT22;25503;52.532;13.640;2022-12-29T04:36:30;9.50;99.90
39825;DHT22;25503;52.532;13.640;2022-12-29T04:38:56;9.60;99.90
39825;DHT22;25503;52.532;13.640;2022-12-29T04:41:22;9.60;99.90
39825;DHT22;25503;52.532;13.640;2022-12-29T04:43:48;9.60;99.90
39825;DHT22;25503;52.532;13.640;2022-12-29T04:46:14;9.60;99.90
39825;DHT22;25503;52.532;13.640;2022-12-29T04:48:39;9.60;99.90
39825;DHT22;25503;52.532;13.640;2022-12-29T04:51:05;9.60;99.90
39825;DHT22;25503;52.532;13.640;2022-12-29T04:53:30;9.60;99.90
39825;DHT22;25503;52.532;13.640;2022-12-29T04:55:56;9.70;99.90
39825;DHT22;25503;52.532;13.640;2022-12-29T04:58:22;9.70;99.90
39825;DHT22;25503;52.532;13.640;2022-12-29T05:00:47;9.70;99.90
39825;DHT22;25503;52.532;13.640;2022-12-29T05:03:13;9.70;99.90
39825;DHT22;25503;52.532;13.640;2022-12-29T05:05:38;9.70;99.90
39825;DHT22;25503;52.532;13.640;2022-12-29T05:08:04;9.70;99.90
39825;DHT22;25503;52.532;13.640;2022-12-29T05:10:30;9.70;99.90
39825;DHT22;25503;52.532;13.640;2022-12-29T05:12:55;9.70;99.90
39825;DHT22;25503;52.532;13.640;2022-12-29T05:15:22;9.80;99.90
39825;DHT22;25503;52.532;13.640;2022-12-29T05:17:48;9.80;99.90
39825;DHT22;25503;52.532;13.640;2022-12-29T05:20:13;9.80;99.90
39825;DHT22;25503;52.532;13.640;2022-12-29T05:22:39;9.80;99.90
39825;DHT22;25503;52.532;13.640;2022-12-29T05:25:05;9.80;99.90
39825;DHT22;25503;52.532;13.640;2022-12-29T05:27:32;9.90;99.90
39825;DHT22;25503;52.532;13.640;2022-12-29T05:29:57;9.90;99.90
39825;DHT22;25503;52.532;13.640;2022-12-29T05:32:23;9.90;99.90
39825;DHT22;25503;52.532;13.640;2022-12-29T05:34:49;9.90;99.90
39825;DHT22;25503;52.532;13.640;2022-12-29T05:37:15;9.90;99.90
39825;DHT22;25503;52.532;13.640;2022-12-29T05:39:40;9.90;99.90
39825;DHT22;25503;52.532;13.640;2022-12-29T05:42:06;9.90;99.90
39825;DHT22;25503;52.532;13.640;2022-12-29T05:44:31;9.90;99.90
39825;DHT22;25503;52.532;13.640;2022-12-29T05:46:57;9.90;99.90
39825;DHT22;25503;52.532;13.640;2022-12-29T05:49:22;9.90;99.90
39825;DHT22;25503;52.532;13.640;2022-12-29T05:51:48;9.90;99.90
39825;DHT22;25503;52.532;13.640;2022-12-29T05:54:14;9.90;99.90
39825;DHT22;25503;52.532;13.640;2022-12-29T05:56:39;9.90;99.90
39825;DHT22;25503;52.532;13.640;2022-12-29T05:59:05;9.90;99.90
39825;DHT22;25503;52.532;13.640;2022-12-29T06:01:30;9.90;99.90
39825;DHT22;25503;52.532;13.640;2022-12-29T06:03:56;9.90;99.90
39825;DHT22;25503;52.532;13.640;2022-12-29T06:06:21;9.90;99.90
39825;DHT22;25503;52.532;13.640;2022-12-29T06:08:47;10.00;99.90
39825;DHT22;25503;52.532;13.640;2022-12-29T06:11:13;10.00;99.90
39825;DHT22;25503;52.532;13.640;2022-12-29T06:13:38;10.00;99.90
39825;DHT22;25503;52.532;13.640;2022-12-29T06:16:04;10.00;99.90
39825;DHT22;25503;52.532;13.640;2022-12-29T06:18:30;10.00;99.90
39825;DHT22;25503;52.532;13.640;2022-12-29T06:21:03;10.10;99.90
39825;DHT22;25503;52.532;13.640;2022-12-29T06:23:37;10.10;99.90
39825;DHT22;25503;52.532;13.640;2022-12-29T06:26:02;10.20;99.90
39825;DHT22;25503;52.532;13.640;2022-12-29T06:28:28;10.20;99.90
39825;DHT22;25503;52.532;13.640;2022-12-29T06:30:54;10.20;99.90
39825;DHT22;25503;52.532;13.640;2022-12-29T06:33:19;10.20;99.90
39825;DHT22;25503;52.532;13.640;2022-12-29T06:35:46;10.30;99.90
39825;DHT22;25503;52.532;13.640;2022-12-29T06:38:12;10.30;99.90
39825;DHT22;25503;52.532;13.640;2022-12-29T06:40:38;10.20;99.90
39825;DHT22;25503;52.532;13.640;2022-12-29T06:43:03;10.20;99.90
39825;DHT22;25503;52.532;13.640;2022-12-29T06:45:29;10.20;99.90
39825;DHT22;25503;52.532;13.640;2022-12-29T06:47:54;10.20;99.90
39825;DHT22;25503;52.532;13.640;2022-12-29T06:50:20;10.30;99.90
39825;DHT22;25503;52.532;13.640;2022-12-29T06:52:46;10.30;99.90
39825;DHT22;25503;52.532;13.640;2022-12-29T06:55:11;10.30;99.90
39825;DHT22;25503;52.532;13.640;2022-12-29T06:57:37;10.40;99.90
39825;DHT22;25503;52.532;13.640;2022-12-29T07:00:04;10.40;99.90
39825;DHT22;25503;52.532;13.640;2022-12-29T07:02:30;10.40;99.90
39825;DHT22;25503;52.532;13.640;2022-12-29T07:04:55;10.40;99.90
39825;DHT22;25503;52.532;13.640;2022-12-29T07:07:21;10.40;99.90
39825;DHT22;25503;52.532;13.640;2022-12-29T07:09:47;10.40;99.90
39825;DHT22;25503;52.532;13.640;2022-12-29T07:12:13;10.50;99.90
39825;DHT22;25503;52.532;13.640;2022-12-29T07:14:38;10.50;99.90
39825;DHT22;25503;52.532;13.640;2022-12-29T07:17:05;10.40;99.90
39825;DHT22;25503;52.532;13.640;2022-12-29T07:19:32;10.40;99.90
39825;DHT22;25503;52.532;13.640;2022-12-29T07:21:58;10.40;99.90
39825;DHT22;25503;52.532;13.640;2022-12-29T07:24:23;10.40;99.90
39825;DHT22;25503;52.532;13.640;2022-12-29T07:26:51;10.40;99.90
39825;DHT22;25503;52.532;13.640;2022-12-29T07:29:16;10.40;99.90
39825;DHT22;25503;52.532;13.640;2022-12-29T07:31:42;10.40;99.90
39825;DHT22;25503;52.532;13.640;2022-12-29T07:34:08;10.30;99.90
39825;DHT22;25503;52.532;13.640;2022-12-29T07:36:34;10.30;99.90
39825;DHT22;25503;52.532;13.640;2022-12-29T07:38:59;10.30;99.90
39825;DHT22;25503;52.532;13.640;2022-12-29T07:41:25;10.30;99.90
39825;DHT22;25503;52.532;13.640;2022-12-29T07:43:50;10.30;99.90
39825;DHT22;25503;52.532;13.640;2022-12-29T07:46:16;10.30;99.90
39825;DHT22;25503;52.532;13.640;2022-12-29T07:48:42;10.30;99.90
39825;DHT22;25503;52.532;13.640;2022-12-29T07:51:07;10.30;99.90
39825;DHT22;25503;52.532;13.640;2022-12-29T07:53:33;10.20;99.90
39825;DHT22;25503;52.532;13.640;2022-12-29T07:55:58;10.30;99.90
39825;DHT22;25503;52.532;13.640;2022-12-29T07:58:24;10.30;99.90
39825;DHT22;25503;52.532;13.640;2022-12-29T08:00:57;10.30;99.90
39825;DHT22;25503;52.532;13.640;2022-12-29T08:03:23;10.30;99.90
39825;DHT22;25503;52.532;13.640;2022-12-29T08:05:50;10.40;99.90
39825;DHT22;25503;52.532;13.640;2022-12-29T08:08:15;10.50;99.90
39825;DHT22;25503;52.532;13.640;2022-12-29T08:10:41;10.50;99.90
39825;DHT22;25503;52.532;13.640;2022-12-29T08:13:07;10.60;99.90
39825;DHT22;25503;52.532;13.640;2022-12-29T08:15:32;10.60;99.90
39825;DHT22;25503;52.532;13.640;2022-12-29T08:17:59;10.60;99.90
39825;DHT22;25503;52.532;13.640;2022-12-29T08:20:25;10.70;99.90
39825;DHT22;25503;52.532;13.640;2022-12-29T08:22:50;10.80;99.90
39825;DHT22;25503;52.532;13.640;2022-12-29T08:25:16;10.80;99.90
39825;DHT22;25503;52.532;13.640;2022-12-29T08:27:42;10.90;99.90
39825;DHT22;25503;52.532;13.640;2022-12-29T08:30:08;10.90;99.90
39825;DHT22;25503;52.532;13.640;2022-12-29T08:32:34;10.90;99.90
39825;DHT22;25503;52.532;13.640;2022-12-29T08:34:59;10.90;99.90
39825;DHT22;25503;52.532;13.640;2022-12-29T08:37:25;10.90;99.90
39825;DHT22;25503;52.532;13.640;2022-12-29T08:39:51;10.90;99.90
39825;DHT22;25503;52.532;13.640;2022-12-29T08:42:17;10.90;99.90
39825;DHT22;25503;52.532;13.640;2022-12-29T08:44:42;10.90;99.90
39825;DHT22;25503;52.532;13.640;2022-12-29T08:47:10;10.90;99.90
39825;DHT22;25503;52.532;13.640;2022-12-29T08:49:36;10.90;99.90
39825;DHT22;25503;52.532;13.640;2022-12-29T08:52:04;11.00;99.90
39825;DHT22;25503;52.532;13.640;2022-12-29T08:54:30;10.90;99.90
39825;DHT22;25503;52.532;13.640;2022-12-29T08:56:55;11.00;99.90
39825;DHT22;25503;52.532;13.640;2022-12-29T08:59:21;11.00;99.90
39825;DHT22;25503;52.532;13.640;2022-12-29T09:01:47;11.00;99.90
39825;DHT22;25503;52.532;13.640;2022-12-29T09:04:12;11.00;99.90
39825;DHT22;25503;52.532;13.640;2022-12-29T09:06:38;11.00;99.90
39825;DHT22;25503;52.532;13.640;2022-12-29T09:09:04;11.00;99.90
39825;DHT22;25503;52.532;13.640;2022-12-29T09:11:29;11.00;99.90
39825;DHT22;25503;52.532;13.640;2022-12-29T09:13:55;11.00;99.90
39825;DHT22;25503;52.532;13.640;2022-12-29T09:16:23;11.10;99.90
39825;DHT22;25503;52.532;13.640;2022-12-29T09:18:49;11.20;99.90
39825;DHT22;25503;52.532;13.640;2022-12-29T09:21:14;11.20;99.90
39825;DHT22;25503;52.532;13.640;2022-12-29T09:23:40;11.20;99.90
39825;DHT22;25503;52.532;13.640;2022-12-29T09:26:06;11.20;99.90
39825;DHT22;25503;52.532;13.640;2022-12-29T09:28:33;11.30;99.90
39825;DHT22;25503;52.532;13.640;2022-12-29T09:30:59;11.30;99.90
39825;DHT22;25503;52.532;13.640;2022-12-29T09:33:25;11.40;99.90
39825;DHT22;25503;52.532;13.640;2022-12-29T09:35:53;11.60;99.90
39825;DHT22;25503;52.532;13.640;2022-12-29T09:38:19;11.70;99.90
39825;DHT22;25503;52.532;13.640;2022-12-29T09:40:50;11.70;99.90
39825;DHT22;25503;52.532;13.640;2022-12-29T09:43:50;11.90;99.90
39825;DHT22;25503;52.532;13.640;2022-12-29T09:46:23;12.00;99.90
39825;DHT22;25503;52.532;13.640;2022-12-29T09:49:06;12.10;99.90
39825;DHT22;25503;52.532;13.640;2022-12-29T09:51:37;12.10;99.90
39825;DHT22;25503;52.532;13.640;2022-12-29T09:56:46;12.10;99.90
39825;DHT22;25503;52.532;13.640;2022-12-29T09:59:17;12.10;99.90
39825;DHT22;25503;52.532;13.640;2022-12-29T10:01:54;12.20;99.90
39825;DHT22;25503;52.532;13.640;2022-12-29T10:04:26;12.30;99.90
39825;DHT22;25503;52.532;13.640;2022-12-29T10:07:08;12.40;99.90
39825;DHT22;25503;52.532;13.640;2022-12-29T10:18:08;12.50;99.90
39825;DHT22;25503;52.532;13.640;2022-12-29T10:21:07;12.60;99.90
39825;DHT22;25503;52.532;13.640;2022-12-29T10:23:40;12.50;99.90
39825;DHT22;25503;52.532;13.640;2022-12-29T10:26:15;12.50;99.90
39825;DHT22;25503;52.532;13.640;2022-12-29T10:28:58;12.50;99.90
39825;DHT22;25503;52.532;13.640;2022-12-29T10:34:03;12.50;99.90
39825;DHT22;25503;52.532;13.640;2022-12-29T10:36:44;12.50;99.90
39825;DHT22;25503;52.532;13.640;2022-12-29T10:39:33;12.50;99.90
39825;DHT22;25503;52.532;13.640;2022-12-29T10:42:09;12.50;99.90
39825;DHT22;25503;52.532;13.640;2022-12-29T10:44:37;12.50;99.90
39825;DHT22;25503;52.532;13.640;2022-12-29T10:47:06;12.50;99.90
39825;DHT22;25503;52.532;13.640;2022-12-29T10:49:37;12.50;99.90
39825;DHT22;25503;52.532;13.640;2022-12-29T10:52:05;12.50;99.90
39825;DHT22;25503;52.532;13.640;2022-12-29T10:57:24;12.60;99.90
39825;DHT22;25503;52.532;13.640;2022-12-29T10:59:51;12.60;99.90
39825;DHT22;25503;52.532;13.640;2022-12-29T11:08:04;12.70;99.90
39825;DHT22;25503;52.532;13.640;2022-12-29T11:13:19;12.80;99.90
39825;DHT22;25503;52.532;13.640;2022-12-29T11:15:50;12.80;99.90
39825;DHT22;25503;52.532;13.640;2022-12-29T11:18:38;12.80;99.90
39825;DHT22;25503;52.532;13.640;2022-12-29T11:21:37;12.90;99.90
39825;DHT22;25503;52.532;13.640;2022-12-29T11:24:26;12.90;99.90
39825;DHT22;25503;52.532;13.640;2022-12-29T11:27:14;13.00;99.90
39825;DHT22;25503;52.532;13.640;2022-12-29T11:29:42;12.90;99.90
39825;DHT22;25503;52.532;13.640;2022-12-29T11:34:47;12.90;99.90
39825;DHT22;25503;52.532;13.640;2022-12-29T11:37:31;12.90;99.90
39825;DHT22;25503;52.532;13.640;2022-12-29T11:45:20;12.80;99.90
39825;DHT22;25503;52.532;13.640;2022-12-29T11:48:05;12.80;99.90
39825;DHT22;25503;52.532;13.640;2022-12-29T11:50:34;12.80;99.90
39825;DHT22;25503;52.532;13.640;2022-12-29T11:53:17;12.80;99.90
39825;DHT22;25503;52.532;13.640;2022-12-29T11:56:00;12.70;99.90
39825;DHT22;25503;52.532;13.640;2022-12-29T11:58:35;12.60;99.90
39825;DHT22;25503;52.532;13.640;2022-12-29T12:03:39;12.50;99.90
39825;DHT22;25503;52.532;13.640;2022-12-29T12:06:07;12.40;99.90
39825;DHT22;25503;52.532;13.640;2022-12-29T12:08:51;12.40;99.90
39825;DHT22;25503;52.532;13.640;2022-12-29T12:11:28;12.30;99.90
39825;DHT22;25503;52.532;13.640;2022-12-29T12:16:40;12.20;99.90
39825;DHT22;25503;52.532;13.640;2022-12-29T12:19:34;12.20;99.90
39825;DHT22;25503;52.532;13.640;2022-12-29T12:22:46;12.10;99.90
39825;DHT22;25503;52.532;13.640;2022-12-29T12:25:14;11.90;99.90
39825;DHT22;25503;52.532;13.640;2022-12-29T12:30:20;11.50;99.90
39825;DHT22;25503;52.532;13.640;2022-12-29T12:32:54;11.40;99.90
39825;DHT22;25503;52.532;13.640;2022-12-29T12:46:14;11.00;99.90
39825;DHT22;25503;52.532;13.640;2022-12-29T12:52:01;11.00;99.90
39825;DHT22;25503;52.532;13.640;2022-12-29T12:57:36;10.90;99.90
39825;DHT22;25503;52.532;13.640;2022-12-29T13:00:12;10.90;99.90
39825;DHT22;25503;52.532;13.640;2022-12-29T13:03:03;10.80;99.90
39825;DHT22;25503;52.532;13.640;2022-12-29T13:16:46;10.60;99.90
39825;DHT22;25503;52.532;13.640;2022-12-29T13:19:34;10.60;99.90
39825;DHT22;25503;52.532;13.640;2022-12-29T13:27:52;10.50;99.90
39825;DHT22;25503;52.532;13.640;2022-12-29T13:30:34;10.50;99.90
39825;DHT22;25503;52.532;13.640;2022-12-29T13:33:18;10.40;99.90
39825;DHT22;25503;52.532;13.640;2022-12-29T13:36:09;10.40;99.90
39825;DHT22;25503;52.532;13.640;2022-12-29T13:39:01;10.40;99.90
39825;DHT22;25503;52.532;13.640;2022-12-29T13:41:33;10.40;99.90
39825;DHT22;25503;52.532;13.640;2022-12-29T13:44:02;10.50;99.90
39825;DHT22;25503;52.532;13.640;2022-12-29T13:46:33;10.50;99.90
39825;DHT22;25503;52.532;13.640;2022-12-29T13:49:05;10.50;99.90
39825;DHT22;25503;52.532;13.640;2022-12-29T13:51:33;10.50;99.90
39825;DHT22;25503;52.532;13.640;2022-12-29T13:57:10;10.50;99.90
39825;DHT22;25503;52.532;13.640;2022-12-29T13:59:52;10.50;99.90
39825;DHT22;25503;52.532;13.640;2022-12-29T14:07:44;10.50;99.90
39825;DHT22;25503;52.532;13.640;2022-12-29T14:10:34;10.40;99.90
39825;DHT22;25503;52.532;13.640;2022-12-29T14:13:26;10.40;99.90
39825;DHT22;25503;52.532;13.640;2022-12-29T14:15:55;10.40;99.90
39825;DHT22;25503;52.532;13.640;2022-12-29T14:18:28;10.40;99.90
39825;DHT22;25503;52.532;13.640;2022-12-29T14:20:58;10.30;99.90
39825;DHT22;25503;52.532;13.640;2022-12-29T14:28:39;10.20;99.90
39825;DHT22;25503;52.532;13.640;2022-12-29T14:33:41;10.10;99.90
39825;DHT22;25503;52.532;13.640;2022-12-29T14:44:46;10.00;99.90
39825;DHT22;25503;52.532;13.640;2022-12-29T14:47:31;10.00;99.90
39825;DHT22;25503;52.532;13.640;2022-12-29T14:50:18;10.00;99.90
39825;DHT22;25503;52.532;13.640;2022-12-29T14:52:56;9.90;99.90
39825;DHT22;25503;52.532;13.640;2022-12-29T14:55:41;9.90;99.90
39825;DHT22;25503;52.532;13.640;2022-12-29T14:58:20;9.90;99.90
39825;DHT22;25503;52.532;13.640;2022-12-29T15:00:48;9.90;99.90
39825;DHT22;25503;52.532;13.640;2022-12-29T15:05:58;9.80;99.90
39825;DHT22;25503;52.532;13.640;2022-12-29T15:08:26;9.80;99.90
39825;DHT22;25503;52.532;13.640;2022-12-29T15:10:57;9.80;99.90
39825;DHT22;25503;52.532;13.640;2022-12-29T15:13:33;9.80;99.90
39825;DHT22;25503;52.532;13.640;2022-12-29T15:15:59;9.80;99.90
39825;DHT22;25503;52.532;13.640;2022-12-29T15:18:25;9.80;99.90
39825;DHT22;25503;52.532;13.640;2022-12-29T15:21:03;9.80;99.90
39825;DHT22;25503;52.532;13.640;2022-12-29T15:23:31;9.80;99.90
39825;DHT22;25503;52.532;13.640;2022-12-29T15:26:04;9.80;99.90
39825;DHT22;25503;52.532;13.640;2022-12-29T15:28:40;9.80;99.90
39825;DHT22;25503;52.532;13.640;2022-12-29T15:31:09;9.90;99.90
39825;DHT22;25503;52.532;13.640;2022-12-29T15:33:40;9.90;99.90
39825;DHT22;25503;52.532;13.640;2022-12-29T15:36:12;10.00;99.90
39825;DHT22;25503;52.532;13.640;2022-12-29T15:38:38;10.00;99.90
39825;DHT22;25503;52.532;13.640;2022-12-29T15:41:06;10.00;99.90
39825;DHT22;25503;52.532;13.640;2022-12-29T15:46:12;10.10;99.90
39825;DHT22;25503;52.532;13.640;2022-12-29T15:48:38;10.10;99.90
39825;DHT22;25503;52.532;13.640;2022-12-29T15:51:20;10.10;99.90
39825;DHT22;25503;52.532;13.640;2022-12-29T15:53:48;10.10;99.90
39825;DHT22;25503;52.532;13.640;2022-12-29T15:56:15;10.10;99.90
39825;DHT22;25503;52.532;13.640;2022-12-29T15:58:44;10.10;99.90
39825;DHT22;25503;52.532;13.640;2022-12-29T16:01:18;10.10;99.90
39825;DHT22;25503;52.532;13.640;2022-12-29T16:03:45;10.10;99.90
39825;DHT22;25503;52.532;13.640;2022-12-29T16:06:32;10.10;99.90
39825;DHT22;25503;52.532;13.640;2022-12-29T16:11:34;10.00;99.90
39825;DHT22;25503;52.532;13.640;2022-12-29T16:14:01;10.00;99.90
39825;DHT22;25503;52.532;13.640;2022-12-29T16:16:33;9.90;99.90
39825;DHT22;25503;52.532;13.640;2022-12-29T16:19:09;9.90;99.90
39825;DHT22;25503;52.532;13.640;2022-12-29T16:21:37;9.90;99.90
39825;DHT22;25503;52.532;13.640;2022-12-29T16:24:08;9.90;99.90
39825;DHT22;25503;52.532;13.640;2022-12-29T16:26:36;9.90;99.90
39825;DHT22;25503;52.532;13.640;2022-12-29T16:29:05;9.90;99.90
39825;DHT22;25503;52.532;13.640;2022-12-29T16:31:36;9.80;99.90
39825;DHT22;25503;52.532;13.640;2022-12-29T16:34:24;9.80;99.90
39825;DHT22;25503;52.532;13.640;2022-12-29T16:39:38;9.80;99.90
39825;DHT22;25503;52.532;13.640;2022-12-29T16:42:33;9.80;99.90
39825;DHT22;25503;52.532;13.640;2022-12-29T16:47:49;9.90;99.90
39825;DHT22;25503;52.532;13.640;2022-12-29T16:50:28;10.00;99.90
39825;DHT22;25503;52.532;13.640;2022-12-29T16:52:54;10.00;99.90
39825;DHT22;25503;52.532;13.640;2022-12-29T16:55:20;10.00;99.90
39825;DHT22;25503;52.532;13.640;2022-12-29T16:57:47;10.00;99.90
39825;DHT22;25503;52.532;13.640;2022-12-29T17:02:44;10.00;99.90
39825;DHT22;25503;52.532;13.640;2022-12-29T17:05:17;10.00;99.90
39825;DHT22;25503;52.532;13.640;2022-12-29T17:07:43;9.90;99.90
39825;DHT22;25503;52.532;13.640;2022-12-29T17:10:09;9.90;99.90
39825;DHT22;25503;52.532;13.640;2022-12-29T17:12:36;9.90;99.90
39825;DHT22;25503;52.532;13.640;2022-12-29T17:17:46;10.00;99.90
39825;DHT22;25503;52.532;13.640;2022-12-29T17:20:22;10.00;99.90
39825;DHT22;25503;52.532;13.640;2022-12-29T17:22:48;10.00;99.90
39825;DHT22;25503;52.532;13.640;2022-12-29T17:25:16;10.00;99.90
39825;DHT22;25503;52.532;13.640;2022-12-29T17:28:01;10.00;99.90
39825;DHT22;25503;52.532;13.640;2022-12-29T17:30:29;9.90;99.90
39825;DHT22;25503;52.532;13.640;2022-12-29T17:33:05;9.90;99.90
39825;DHT22;25503;52.532;13.640;2022-12-29T17:35:33;9.90;99.90
39825;DHT22;25503;52.532;13.640;2022-12-29T17:37:58;9.90;99.90
39825;DHT22;25503;52.532;13.640;2022-12-29T17:40:31;9.90;99.90
39825;DHT22;25503;52.532;13.640;2022-12-29T17:42:58;9.90;99.90
39825;DHT22;25503;52.532;13.640;2022-12-29T17:45:28;9.90;99.90
39825;DHT22;25503;52.532;13.640;2022-12-29T17:47:55;9.90;99.90
39825;DHT22;25503;52.532;13.640;2022-12-29T17:50:25;9.90;99.90
39825;DHT22;25503;52.532;13.640;2022-12-29T17:52:54;9.90;99.90
39825;DHT22;25503;52.532;13.640;2022-12-29T17:55:22;9.90;99.90
39825;DHT22;25503;52.532;13.640;2022-12-29T17:57:48;9.90;99.90
39825;DHT22;25503;52.532;13.640;2022-12-29T18:02:40;9.90;99.90
39825;DHT22;25503;52.532;13.640;2022-12-29T18:05:22;9.90;99.90
39825;DHT22;25503;52.532;13.640;2022-12-29T18:07:52;9.90;99.90
39825;DHT22;25503;52.532;13.640;2022-12-29T18:10:19;10.00;99.90
39825;DHT22;25503;52.532;13.640;2022-12-29T18:12:47;10.00;99.90
39825;DHT22;25503;52.532;13.640;2022-12-29T18:15:33;10.10;99.90
39825;DHT22;25503;52.532;13.640;2022-12-29T18:18:11;10.10;99.90
39825;DHT22;25503;52.532;13.640;2022-12-29T18:20:38;10.10;99.90
39825;DHT22;25503;52.532;13.640;2022-12-29T18:23:04;10.20;99.90